Time;durP1;ratioP1;P1;durP2;ratioP2;P2;SDS_P1;SDS_P2;PMS_P1;PMS_P2;Temp;Humidity;BMP_temperature;BMP_pressure;BME280_temperature;BME280_humidity;BME280_pressure;Samples;Min_cycle;Max_cycle;Signal;HPM_P1;HPM_P2
2023/03/14 00:01:50;;;;;;;0.30;0.30;;;12.70;99.90;;;;;;4431498;32;20163;-72
2023/03/14 00:04:16;;;;;;;0.50;0.50;;;12.60;99.90;;;;;;4434088;32;20402;-71
2023/03/14 00:06:41;;;;;;;0.30;0.30;;;12.60;99.90;;;;;;4434432;32;20093;-72
2023/03/14 00:09:07;;;;;;;0.30;0.30;;;12.60;99.90;;;;;;4432325;32;20240;-72
2023/03/14 00:11:33;;;;;;;0.40;0.40;;;12.50;99.90;;;;;;4431713;32;20517;-72
2023/03/14 00:13:59;;;;;;;0.40;0.40;;;12.50;99.90;;;;;;4430614;32;20084;-72
2023/03/14 00:16:27;;;;;;;0.30;0.30;;;12.50;99.90;;;;;;4434048;32;20136;-72
2023/03/14 00:18:52;;;;;;;0.35;0.35;;;12.40;99.90;;;;;;4433261;32;20077;-71
2023/03/14 00:21:18;;;;;;;2.10;0.62;;;12.40;99.90;;;;;;4433201;32;20069;-71
2023/03/14 00:23:45;;;;;;;0.37;0.37;;;12.40;99.90;;;;;;4432488;32;20073;-71
2023/03/14 00:26:13;;;;;;;0.52;0.52;;;12.40;99.90;;;;;;4434593;32;20061;-72
2023/03/14 00:28:39;;;;;;;0.40;0.40;;;12.40;99.90;;;;;;4435865;32;20077;-73
2023/03/14 00:31:07;;;;;;;0.30;0.30;;;12.40;99.90;;;;;;4433752;32;20148;-74
2023/03/14 00:33:33;;;;;;;1.27;0.62;;;12.40;99.90;;;;;;4433378;32;20093;-73
2023/03/14 00:36:00;;;;;;;0.30;0.30;;;12.40;99.90;;;;;;4436747;32;20069;-73
2023/03/14 00:38:26;;;;;;;0.40;0.40;;;12.30;99.90;;;;;;4434814;32;20544;-72
2023/03/14 00:40:53;;;;;;;0.30;0.30;;;12.20;99.90;;;;;;4432051;32;20112;-72
2023/03/14 00:43:22;;;;;;;0.30;0.30;;;12.30;99.90;;;;;;4431883;32;20073;-72
2023/03/14 00:45:49;;;;;;;0.25;0.25;;;12.20;99.90;;;;;;4437671;32;20517;-72
2023/03/14 00:48:14;;;;;;;0.40;0.40;;;12.20;99.90;;;;;;4434572;32;20116;-72
2023/03/14 00:50:40;;;;;;;0.40;0.40;;;12.20;99.90;;;;;;4435290;32;20154;-73
2023/03/14 00:53:06;;;;;;;0.30;0.30;;;12.20;99.90;;;;;;4435516;32;20184;-73
2023/03/14 00:55:31;;;;;;;0.30;0.30;;;12.20;99.90;;;;;;4434506;32;20074;-72
2023/03/14 00:57:56;;;;;;;0.37;0.37;;;12.10;99.90;;;;;;4435516;32;20548;-73
2023/03/14 01:00:23;;;;;;;1.20;0.43;;;12.10;99.90;;;;;;4434432;32;20072;-72
2023/03/14 01:02:48;;;;;;;0.62;0.62;;;12.00;99.90;;;;;;4433473;32;20074;-73
2023/03/14 01:05:15;;;;;;;0.30;0.30;;;12.00;99.90;;;;;;4435473;32;21345;-73
2023/03/14 01:07:40;;;;;;;7.30;1.33;;;12.00;99.90;;;;;;4436641;32;20084;-72
2023/03/14 01:10:07;;;;;;;0.30;0.30;;;12.00;99.90;;;;;;4434043;32;20229;-72
2023/03/14 01:12:32;;;;;;;0.30;0.30;;;12.00;99.90;;;;;;4435336;32;20077;-72
2023/03/14 01:14:58;;;;;;;0.30;0.30;;;12.00;99.90;;;;;;4435246;32;20565;-72
2023/03/14 01:17:23;;;;;;;0.57;0.57;;;12.00;99.90;;;;;;4433461;32;20077;-71
2023/03/14 01:19:49;;;;;;;0.30;0.30;;;12.00;99.90;;;;;;4434064;32;20205;-71
2023/03/14 01:22:14;;;;;;;0.32;0.32;;;11.90;99.90;;;;;;4432463;32;20065;-71
2023/03/14 01:24:40;;;;;;;0.40;0.40;;;11.90;99.90;;;;;;4434018;32;20080;-72
2023/03/14 01:27:05;;;;;;;0.30;0.30;;;11.90;99.90;;;;;;4435876;32;20073;-71
2023/03/14 01:29:31;;;;;;;0.40;0.40;;;11.90;99.90;;;;;;4434800;32;20076;-73
2023/03/14 01:31:56;;;;;;;1.00;0.82;;;11.90;99.90;;;;;;4433235;32;20068;-70
2023/03/14 01:34:22;;;;;;;0.32;0.32;;;11.90;99.90;;;;;;4435060;32;20077;-71
2023/03/14 01:36:47;;;;;;;0.32;0.32;;;11.90;99.90;;;;;;4435339;32;20082;-72
2023/03/14 01:39:13;;;;;;;0.40;0.40;;;11.90;99.90;;;;;;4434981;32;20432;-71
2023/03/14 01:41:39;;;;;;;0.40;0.40;;;11.80;99.90;;;;;;4435429;32;20076;-73
2023/03/14 01:44:11;;;;;;;1.00;0.85;;;11.80;99.90;;;;;;4424327;32;20110;-71
2023/03/14 01:46:45;;;;;;;0.37;0.30;;;11.80;99.90;;;;;;4423093;32;20156;-71
2023/03/14 01:49:16;;;;;;;0.30;0.30;;;11.80;99.90;;;;;;4424396;32;20153;-72
2023/03/14 01:51:52;;;;;;;0.30;0.30;;;11.80;99.90;;;;;;4422083;32;20492;-72
2023/03/14 01:54:20;;;;;;;0.30;0.30;;;11.80;99.90;;;;;;4423824;32;20062;-72
2023/03/14 01:56:52;;;;;;;0.30;0.30;;;11.80;99.90;;;;;;4423966;32;20187;-71
2023/03/14 01:59:18;;;;;;;0.30;0.30;;;11.70;99.90;;;;;;4423035;32;20078;-71
2023/03/14 02:01:47;;;;;;;1.15;0.50;;;11.80;99.90;;;;;;4421558;32;20156;-72
2023/03/14 02:04:14;;;;;;;0.30;0.30;;;11.80;99.90;;;;;;4423566;32;20073;-72
2023/03/14 02:06:48;;;;;;;0.30;0.30;;;11.70;99.90;;;;;;4424174;32;20474;-73
2023/03/14 02:09:14;;;;;;;0.40;0.40;;;11.70;99.90;;;;;;4423141;32;20147;-72
2023/03/14 02:11:40;;;;;;;0.30;0.30;;;11.70;99.90;;;;;;4422116;32;21271;-73
2023/03/14 02:14:09;;;;;;;0.30;0.30;;;11.80;99.90;;;;;;4423352;32;20137;-73
2023/03/14 02:16:35;;;;;;;0.20;0.20;;;11.70;99.90;;;;;;4423353;32;20084;-73
2023/03/14 02:19:01;;;;;;;0.40;0.40;;;11.70;99.90;;;;;;4423853;32;21067;-72
2023/03/14 02:21:43;;;;;;;0.25;0.25;;;11.70;99.90;;;;;;4422717;32;20153;-73
2023/03/14 02:24:23;;;;;;;0.30;0.30;;;11.70;99.90;;;;;;4418992;32;20455;-73
2023/03/14 02:27:07;;;;;;;0.43;0.43;;;11.70;99.90;;;;;;4411364;32;20089;-73
2023/03/14 02:29:38;;;;;;;0.25;0.25;;;11.70;99.90;;;;;;4422171;32;20065;-71
2023/03/14 02:32:05;;;;;;;0.70;0.70;;;11.70;99.90;;;;;;4423558;32;20160;-73
2023/03/14 02:34:31;;;;;;;0.40;0.40;;;11.70;99.90;;;;;;4419931;32;20151;-72
2023/03/14 02:36:58;;;;;;;0.37;0.37;;;11.60;99.90;;;;;;4422747;32;20387;-74
2023/03/14 02:39:30;;;;;;;0.40;0.40;;;11.70;99.90;;;;;;4422701;32;20232;-73
2023/03/14 02:41:56;;;;;;;0.30;0.30;;;11.70;99.90;;;;;;4421788;32;20089;-73
2023/03/14 02:44:22;;;;;;;0.30;0.30;;;11.70;99.90;;;;;;4430076;32;20092;-73
2023/03/14 02:46:48;;;;;;;0.30;0.30;;;11.70;99.90;;;;;;4433048;32;20656;-73
2023/03/14 02:49:14;;;;;;;0.30;0.30;;;11.70;99.90;;;;;;4432773;32;20143;-73
2023/03/14 02:51:42;;;;;;;0.28;0.28;;;11.60;99.90;;;;;;4434541;32;20084;-73
2023/03/14 02:54:08;;;;;;;0.70;0.70;;;11.70;99.90;;;;;;4430918;32;20057;-73
2023/03/14 02:56:33;;;;;;;0.30;0.30;;;11.60;99.90;;;;;;4430624;32;20084;-73
2023/03/14 02:59:01;;;;;;;0.32;0.32;;;11.60;99.90;;;;;;4432316;32;20127;-73
2023/03/14 03:01:27;;;;;;;0.40;0.40;;;11.60;99.90;;;;;;4431451;32;20061;-72
2023/03/14 03:03:53;;;;;;;0.68;0.62;;;11.60;99.90;;;;;;4434132;32;20461;-72
2023/03/14 03:06:19;;;;;;;0.30;0.30;;;11.60;99.90;;;;;;4432109;32;20533;-73
2023/03/14 03:08:44;;;;;;;0.30;0.30;;;11.60;99.90;;;;;;4434868;32;20150;-73
2023/03/14 03:11:11;;;;;;;0.40;0.40;;;11.50;99.90;;;;;;4434805;32;20788;-72
2023/03/14 03:13:36;;;;;;;0.30;0.30;;;11.50;99.90;;;;;;4434430;32;20443;-73
2023/03/14 03:16:02;;;;;;;0.40;0.40;;;11.50;99.90;;;;;;4434695;32;20069;-73
2023/03/14 03:18:28;;;;;;;0.30;0.30;;;11.50;99.90;;;;;;4433184;32;20070;-73
2023/03/14 03:20:53;;;;;;;0.30;0.30;;;11.50;99.90;;;;;;4431908;32;20113;-73
2023/03/14 03:23:19;;;;;;;0.30;0.30;;;11.50;99.90;;;;;;4431598;32;20086;-73
2023/03/14 03:25:50;;;;;;;0.30;0.30;;;11.50;99.90;;;;;;4431736;32;20464;-72
2023/03/14 03:28:15;;;;;;;;;;;11.60;99.90;;;;;;4433726;32;20608;-72
2023/03/14 03:30:41;;;;;;;0.30;0.30;;;11.60;99.90;;;;;;4433478;32;20005;-72
2023/03/14 03:33:07;;;;;;;14.80;2.05;;;11.60;99.90;;;;;;4433700;32;20073;-72
2023/03/14 03:35:33;;;;;;;0.37;0.37;;;11.50;99.90;;;;;;4430674;32;20094;-72
2023/03/14 03:37:58;;;;;;;0.37;0.37;;;11.50;99.90;;;;;;4433896;32;20078;-72
2023/03/14 03:40:24;;;;;;;0.30;0.30;;;11.50;99.90;;;;;;4433943;32;20528;-72
2023/03/14 03:42:49;;;;;;;0.30;0.30;;;11.50;99.90;;;;;;4431822;32;20528;-72
2023/03/14 03:45:15;;;;;;;0.55;0.55;;;11.50;99.90;;;;;;4430826;32;20117;-72
2023/03/14 03:47:40;;;;;;;0.30;0.30;;;11.50;99.90;;;;;;4434428;32;20058;-72
2023/03/14 03:50:06;;;;;;;0.40;0.40;;;11.50;99.90;;;;;;4434282;32;20125;-72
2023/03/14 03:52:32;;;;;;;0.30;0.30;;;11.50;99.90;;;;;;4435222;32;20115;-72
2023/03/14 03:54:57;;;;;;;0.43;0.43;;;11.50;99.90;;;;;;4433074;32;20061;-72
2023/03/14 03:57:23;;;;;;;5.53;0.40;;;11.50;99.90;;;;;;4431694;32;20073;-72
2023/03/14 03:59:48;;;;;;;0.30;0.30;;;11.50;99.90;;;;;;4434433;32;20532;-72
2023/03/14 04:02:14;;;;;;;2.45;1.12;;;11.40;99.90;;;;;;4429184;32;20575;-71
2023/03/14 04:04:39;;;;;;;0.30;0.30;;;11.40;99.90;;;;;;4430617;32;20337;-71
2023/03/14 04:07:05;;;;;;;0.40;0.40;;;11.40;99.90;;;;;;4432430;32;20116;-72
2023/03/14 04:09:31;;;;;;;1.27;0.57;;;11.30;99.90;;;;;;4433878;32;20057;-73
2023/03/14 04:11:56;;;;;;;0.30;0.30;;;11.40;99.90;;;;;;4433656;32;20121;-73
2023/03/14 04:14:22;;;;;;;0.55;0.55;;;11.40;99.90;;;;;;4431887;32;20101;-73
2023/03/14 04:16:47;;;;;;;0.50;0.50;;;11.40;99.90;;;;;;4432838;32;20081;-73
2023/03/14 04:19:13;;;;;;;0.30;0.30;;;11.30;99.90;;;;;;4429372;32;20093;-74
2023/03/14 04:21:43;;;;;;;0.30;0.30;;;11.30;99.90;;;;;;4430144;32;20061;-71
2023/03/14 04:24:09;;;;;;;0.30;0.30;;;11.30;99.90;;;;;;4429421;32;20110;-74
2023/03/14 04:26:34;;;;;;;1.42;0.73;;;11.30;99.90;;;;;;4432396;32;20089;-73
2023/03/14 04:29:00;;;;;;;0.35;0.35;;;11.30;99.90;;;;;;4432223;32;20541;-73
2023/03/14 04:31:25;;;;;;;0.40;0.40;;;11.30;99.90;;;;;;4431614;32;20093;-74
2023/03/14 04:33:51;;;;;;;0.30;0.30;;;11.30;99.90;;;;;;4431830;32;20081;-72
2023/03/14 04:36:17;;;;;;;0.40;0.40;;;11.30;99.90;;;;;;4431706;32;20066;-71
2023/03/14 04:38:42;;;;;;;0.47;0.47;;;11.40;99.90;;;;;;4428748;32;20069;-71
2023/03/14 04:41:07;;;;;;;0.40;0.40;;;11.30;99.90;;;;;;4432392;32;21468;-72
2023/03/14 04:43:33;;;;;;;0.32;0.32;;;11.30;99.90;;;;;;4433746;32;20085;-71
2023/03/14 04:45:59;;;;;;;0.32;0.32;;;11.30;99.90;;;;;;4432504;32;20115;-72
2023/03/14 04:48:25;;;;;;;0.20;0.20;;;11.20;99.90;;;;;;4433222;32;20093;-71
2023/03/14 04:50:52;;;;;;;0.20;0.20;;;11.20;99.90;;;;;;4433258;32;20593;-73
2023/03/14 04:53:18;;;;;;;0.30;0.30;;;11.20;99.90;;;;;;4432309;32;20077;-73
2023/03/14 04:55:50;;;;;;;0.40;0.40;;;11.20;99.90;;;;;;4436465;32;20135;-73
2023/03/14 04:58:15;;;;;;;0.40;0.40;;;11.20;99.90;;;;;;4431739;32;20073;-70
2023/03/14 05:00:41;;;;;;;0.22;0.22;;;11.20;99.90;;;;;;4430872;32;20101;-71
2023/03/14 05:03:06;;;;;;;0.65;0.65;;;11.20;99.90;;;;;;4433408;32;20110;-71
2023/03/14 05:05:33;;;;;;;0.35;0.35;;;11.20;99.90;;;;;;4430628;32;21328;-70
2023/03/14 05:07:58;;;;;;;0.30;0.30;;;11.20;99.90;;;;;;4431945;32;20504;-71
2023/03/14 05:10:25;;;;;;;0.68;0.68;;;11.20;99.90;;;;;;4432584;32;20108;-72
2023/03/14 05:12:50;;;;;;;0.30;0.30;;;11.20;99.90;;;;;;4436120;32;21895;-72
2023/03/14 05:15:16;;;;;;;0.40;0.40;;;11.20;99.90;;;;;;4433631;32;20074;-71
2023/03/14 05:17:41;;;;;;;0.40;0.40;;;11.20;99.90;;;;;;4433504;32;20065;-70
2023/03/14 05:20:09;;;;;;;0.30;0.30;;;11.20;99.90;;;;;;4434840;32;20069;-72
2023/03/14 05:22:35;;;;;;;0.40;0.40;;;11.20;99.90;;;;;;4431720;32;20085;-71
2023/03/14 05:25:01;;;;;;;0.30;0.30;;;11.20;99.90;;;;;;4433712;32;20878;-72
2023/03/14 05:27:26;;;;;;;0.40;0.40;;;11.20;99.90;;;;;;4434818;32;20073;-73
2023/03/14 05:29:52;;;;;;;0.45;0.45;;;11.20;99.90;;;;;;4434467;32;20160;-73
2023/03/14 05:32:17;;;;;;;0.30;0.30;;;11.20;99.90;;;;;;4432315;32;20184;-71
2023/03/14 05:34:43;;;;;;;0.37;0.37;;;11.20;99.90;;;;;;4434419;32;20066;-75
2023/03/14 05:37:08;;;;;;;0.30;0.30;;;11.20;99.90;;;;;;4433194;32;20528;-70
2023/03/14 05:39:34;;;;;;;0.57;0.57;;;11.20;99.90;;;;;;4434683;32;20355;-71
2023/03/14 05:41:59;;;;;;;0.30;0.30;;;11.20;99.90;;;;;;4433399;32;20454;-71
2023/03/14 05:44:26;;;;;;;0.37;0.37;;;11.30;99.90;;;;;;4424258;32;20137;-71
2023/03/14 05:46:51;;;;;;;0.30;0.30;;;11.30;99.90;;;;;;4423285;32;20686;-70
2023/03/14 05:49:16;;;;;;;0.40;0.40;;;11.30;99.90;;;;;;4424543;32;20081;-72
2023/03/14 05:51:42;;;;;;;0.40;0.40;;;11.30;99.90;;;;;;4424888;32;20065;-70
2023/03/14 05:54:09;;;;;;;0.40;0.40;;;11.20;99.90;;;;;;4423999;32;20109;-71
2023/03/14 05:56:34;;;;;;;0.30;0.30;;;11.20;99.90;;;;;;4423645;32;20133;-71
2023/03/14 05:59:02;;;;;;;2.58;0.82;;;11.20;99.90;;;;;;4423732;32;20132;-72
2023/03/14 06:01:27;;;;;;;7.28;1.55;;;11.30;99.90;;;;;;4419491;32;21455;-73
2023/03/14 06:03:53;;;;;;;0.47;0.47;;;11.30;99.90;;;;;;4421206;32;20441;-70
2023/03/14 06:06:18;;;;;;;0.50;0.50;;;11.30;99.90;;;;;;4421767;32;20392;-71
2023/03/14 06:08:44;;;;;;;0.40;0.40;;;11.30;99.90;;;;;;4424253;32;20061;-71
2023/03/14 06:11:09;;;;;;;0.43;0.43;;;11.30;99.90;;;;;;4421823;32;20068;-71
2023/03/14 06:13:35;;;;;;;0.37;0.37;;;11.30;99.90;;;;;;4423491;32;20082;-74
2023/03/14 06:16:00;;;;;;;0.35;0.35;;;11.30;99.90;;;;;;4422775;32;20451;-73
2023/03/14 06:18:26;;;;;;;0.30;0.30;;;11.30;99.90;;;;;;4410514;32;20074;-72
2023/03/14 06:20:56;;;;;;;0.60;0.60;;;11.40;99.90;;;;;;4418550;32;20081;-71
2023/03/14 06:23:22;;;;;;;0.30;0.30;;;11.40;99.90;;;;;;4419465;32;20496;-71
2023/03/14 06:25:48;;;;;;;0.28;0.28;;;11.40;99.90;;;;;;4419799;32;20575;-73
2023/03/14 06:28:13;;;;;;;0.43;0.43;;;11.40;99.90;;;;;;4413120;32;20077;-71
2023/03/14 06:30:39;;;;;;;0.40;0.40;;;11.50;99.90;;;;;;4404068;32;20564;-74
2023/03/14 06:33:04;;;;;;;0.37;0.37;;;11.50;99.90;;;;;;4407257;32;20126;-72
2023/03/14 06:35:30;;;;;;;19.58;1.10;;;11.50;99.90;;;;;;4418419;32;20092;-72
2023/03/14 06:37:56;;;;;;;0.40;0.40;;;11.50;99.90;;;;;;4418211;32;20136;-72
2023/03/14 06:40:22;;;;;;;0.55;0.55;;;11.50;99.90;;;;;;4415275;32;20081;-71
2023/03/14 06:42:48;;;;;;;1.45;0.45;;;11.50;99.90;;;;;;4415617;32;20092;-72
2023/03/14 06:45:14;;;;;;;0.47;0.47;;;11.50;99.90;;;;;;4428688;32;20092;-74
2023/03/14 06:47:39;;;;;;;0.40;0.40;;;11.60;99.90;;;;;;4428377;32;20172;-76
2023/03/14 06:50:07;;;;;;;0.25;0.25;;;11.60;99.90;;;;;;4421217;32;20380;-75
2023/03/14 06:52:32;;;;;;;0.95;0.45;;;11.70;99.90;;;;;;4418816;32;20739;-74
2023/03/14 06:54:58;;;;;;;0.37;0.37;;;11.70;99.90;;;;;;4405648;32;20252;-75
2023/03/14 06:57:23;;;;;;;0.35;0.35;;;11.70;99.90;;;;;;4402500;32;20600;-75
2023/03/14 06:59:49;;;;;;;0.30;0.30;;;11.70;99.90;;;;;;4396766;32;20192;-75
2023/03/14 07:02:14;;;;;;;0.40;0.40;;;11.70;99.90;;;;;;4388752;32;20144;-73
2023/03/14 07:04:40;;;;;;;0.40;0.40;;;11.80;99.90;;;;;;4394126;32;20092;-73
2023/03/14 07:07:06;;;;;;;0.35;0.35;;;11.80;99.90;;;;;;4398404;32;20693;-74
2023/03/14 07:09:33;;;;;;;0.40;0.40;;;11.80;99.90;;;;;;4397264;32;20690;-74
2023/03/14 07:11:59;;;;;;;22.33;0.62;;;11.80;99.90;;;;;;4394877;32;20096;-77
2023/03/14 07:14:25;;;;;;;0.25;0.25;;;11.80;99.90;;;;;;4387660;32;21244;-74
2023/03/14 07:16:50;;;;;;;0.30;0.30;;;11.80;99.90;;;;;;4388952;32;21038;-72
2023/03/14 07:19:16;;;;;;;0.37;0.37;;;11.80;99.90;;;;;;4391421;32;20833;-72
2023/03/14 07:21:41;;;;;;;0.40;0.40;;;11.80;99.90;;;;;;4387836;32;20152;-74
2023/03/14 07:24:07;;;;;;;0.43;0.43;;;11.70;99.90;;;;;;4392624;32;20105;-76
2023/03/14 07:26:33;;;;;;;0.60;0.60;;;11.80;99.90;;;;;;4392383;32;20097;-74
2023/03/14 07:28:59;;;;;;;0.32;0.32;;;11.80;99.90;;;;;;4398532;32;20105;-74
2023/03/14 07:31:24;;;;;;;0.70;0.70;;;11.90;99.90;;;;;;4390413;32;20132;-74
2023/03/14 07:33:50;;;;;;;0.30;0.30;;;11.90;99.90;;;;;;4398361;32;20275;-73
2023/03/14 07:36:15;;;;;;;0.43;0.43;;;11.90;99.90;;;;;;4390450;32;20080;-74
2023/03/14 07:38:41;;;;;;;0.43;0.43;;;11.90;99.90;;;;;;4399893;32;20956;-75
2023/03/14 07:41:07;;;;;;;0.30;0.30;;;11.90;99.90;;;;;;4398418;32;20300;-75
2023/03/14 07:43:33;;;;;;;0.30;0.30;;;11.90;99.90;;;;;;4393410;32;20100;-75
2023/03/14 07:45:59;;;;;;;0.37;0.37;;;11.90;99.90;;;;;;4382397;32;20193;-73
2023/03/14 07:48:26;;;;;;;0.57;0.57;;;11.90;99.90;;;;;;4386635;32;20208;-73
2023/03/14 07:50:53;;;;;;;0.40;0.40;;;12.00;99.90;;;;;;4390207;32;20093;-73
2023/03/14 07:53:19;;;;;;;0.32;0.32;;;12.00;99.90;;;;;;4384328;32;20501;-74
2023/03/14 07:55:45;;;;;;;0.40;0.40;;;12.10;99.90;;;;;;4375175;32;20885;-74
2023/03/14 07:58:11;;;;;;;0.40;0.40;;;12.10;99.90;;;;;;4386082;32;20346;-75
2023/03/14 08:00:36;;;;;;;4.15;0.52;;;12.10;99.90;;;;;;4386399;32;20113;-73
2023/03/14 08:03:02;;;;;;;0.37;0.37;;;12.20;99.90;;;;;;4380735;32;20089;-75
2023/03/14 08:05:27;;;;;;;0.30;0.30;;;12.30;99.90;;;;;;4380648;32;20154;-75
2023/03/14 08:07:53;;;;;;;0.30;0.30;;;12.20;99.90;;;;;;4379490;32;20562;-75
2023/03/14 08:10:22;;;;;;;1.45;0.93;;;12.30;99.90;;;;;;4371085;32;21232;-74
2023/03/14 08:12:49;;;;;;;0.28;0.28;;;12.30;99.90;;;;;;4390114;32;20117;-75
2023/03/14 08:15:14;;;;;;;9.25;0.60;;;12.40;99.90;;;;;;4385410;32;20098;-76
2023/03/14 08:17:40;;;;;;;2.37;0.70;;;12.40;99.90;;;;;;4389020;32;20093;-76
2023/03/14 08:20:07;;;;;;;1.00;0.85;;;12.50;99.90;;;;;;4380776;32;20692;-76
2023/03/14 08:22:34;;;;;;;10.52;0.50;;;12.50;99.90;;;;;;4386051;32;20085;-76
2023/03/14 08:25:00;;;;;;;0.57;0.57;;;12.60;99.90;;;;;;4384023;32;20903;-75
2023/03/14 08:27:25;;;;;;;0.30;0.30;;;12.50;99.90;;;;;;4384253;32;20688;-74
2023/03/14 08:29:51;;;;;;;0.30;0.30;;;12.50;99.90;;;;;;4373126;32;20098;-75
2023/03/14 08:32:16;;;;;;;0.50;0.50;;;12.50;99.90;;;;;;4369865;32;20100;-76
2023/03/14 08:34:43;;;;;;;0.30;0.30;;;12.50;99.90;;;;;;4375773;32;20434;-74
2023/03/14 08:37:08;;;;;;;0.30;0.30;;;12.50;99.90;;;;;;4383416;32;21539;-77
2023/03/14 08:39:34;;;;;;;0.30;0.30;;;12.50;99.90;;;;;;4392196;32;20944;-75
2023/03/14 08:41:59;;;;;;;0.50;0.50;;;12.60;99.90;;;;;;4390807;32;20215;-75
2023/03/14 08:44:25;;;;;;;0.40;0.40;;;12.60;99.90;;;;;;4412090;32;20168;-75
2023/03/14 08:46:50;;;;;;;0.30;0.30;;;12.70;99.90;;;;;;4411859;32;20116;-77
2023/03/14 08:49:16;;;;;;;0.40;0.40;;;12.70;99.90;;;;;;4394362;32;20100;-75
2023/03/14 08:51:41;;;;;;;16.70;0.85;;;12.70;99.90;;;;;;4398247;32;20171;-76
2023/03/14 08:54:10;;;;;;;0.40;0.40;;;12.70;99.90;;;;;;4379110;32;20773;-75
2023/03/14 08:56:37;;;;;;;1.80;1.17;;;12.60;99.90;;;;;;4371526;32;20647;-74
2023/03/14 08:59:03;;;;;;;0.40;0.40;;;12.60;99.90;;;;;;4385530;32;20089;-75
2023/03/14 09:01:29;;;;;;;0.30;0.30;;;12.70;99.90;;;;;;4391475;32;20994;-75
2023/03/14 09:03:54;;;;;;;1.00;0.52;;;12.70;99.90;;;;;;4394866;32;20096;-76
2023/03/14 09:06:20;;;;;;;0.40;0.40;;;12.70;99.90;;;;;;4394244;32;20097;-76
2023/03/14 09:08:45;;;;;;;0.30;0.30;;;12.80;99.90;;;;;;4402225;32;20077;-76
2023/03/14 09:11:11;;;;;;;0.20;0.20;;;12.80;99.90;;;;;;4403755;32;20116;-76
2023/03/14 09:13:37;;;;;;;0.82;0.82;;;12.90;99.90;;;;;;4401173;32;20089;-76
2023/03/14 09:16:02;;;;;;;0.40;0.40;;;13.00;99.90;;;;;;4403021;32;20097;-77
2023/03/14 09:18:28;;;;;;;0.68;0.65;;;13.20;99.90;;;;;;4405070;32;20085;-76
2023/03/14 09:20:55;;;;;;;2.95;0.47;;;13.30;99.90;;;;;;4395899;32;20427;-77
2023/03/14 09:23:21;;;;;;;0.25;0.25;;;13.40;99.90;;;;;;4390412;32;20463;-76
2023/03/14 09:25:46;;;;;;;1.12;0.77;;;13.60;99.90;;;;;;4398087;32;20102;-76
2023/03/14 09:28:12;;;;;;;0.40;0.40;;;13.80;99.90;;;;;;4400667;32;20096;-76
2023/03/14 09:30:39;;;;;;;0.35;0.35;;;13.90;99.90;;;;;;4398107;32;20134;-76
2023/03/14 09:33:04;;;;;;;6.72;1.02;;;14.20;99.90;;;;;;4393065;32;20517;-76
2023/03/14 09:35:33;;;;;;;0.43;0.43;;;14.30;99.90;;;;;;4403820;32;20124;-76
2023/03/14 09:37:59;;;;;;;0.60;0.60;;;14.50;99.90;;;;;;4401609;32;20236;-76
2023/03/14 09:40:32;;;;;;;0.32;0.32;;;14.60;99.90;;;;;;4401525;32;20194;-77
2023/03/14 09:42:58;;;;;;;0.40;0.40;;;14.60;99.90;;;;;;4398135;32;20097;-77
2023/03/14 09:45:34;;;;;;;0.30;0.30;;;14.60;99.90;;;;;;4390963;32;20418;-78
2023/03/14 09:48:01;;;;;;;0.43;0.43;;;14.20;99.90;;;;;;4385923;32;20102;-78
2023/03/14 09:50:33;;;;;;;0.40;0.40;;;13.90;99.90;;;;;;4385405;32;20105;-76
2023/03/14 09:53:04;;;;;;;0.40;0.40;;;13.90;99.90;;;;;;4380646;32;20085;-77
2023/03/14 09:55:32;;;;;;;0.50;0.50;;;13.80;99.90;;;;;;4386152;32;20875;-76
2023/03/14 09:58:01;;;;;;;0.47;0.47;;;13.80;99.90;;;;;;4385443;32;20275;-76
2023/03/14 10:00:30;;;;;;;3.53;1.75;;;13.70;99.90;;;;;;4391312;32;20081;-77
2023/03/14 10:03:20;;;;;;;0.40;0.40;;;13.70;99.90;;;;;;4393694;32;20853;-78
2023/03/14 10:05:45;;;;;;;0.40;0.40;;;13.70;99.90;;;;;;4392002;32;20215;-76
2023/03/14 10:08:12;;;;;;;0.40;0.40;;;13.70;99.90;;;;;;4384422;32;20857;-80
2023/03/14 10:10:38;;;;;;;4.20;0.52;;;13.70;99.90;;;;;;4394106;32;20152;-79
2023/03/14 10:13:24;;;;;;;0.40;0.40;;;13.70;99.90;;;;;;4393005;32;20839;-76
2023/03/14 10:15:58;;;;;;;0.68;0.47;;;13.70;99.90;;;;;;4385354;32;20108;-77
2023/03/14 10:18:24;;;;;;;0.30;0.30;;;13.70;99.90;;;;;;4383931;32;20086;-76
2023/03/14 10:21:03;;;;;;;0.40;0.40;;;13.70;99.90;;;;;;4381833;32;20105;-77
2023/03/14 10:23:32;;;;;;;0.50;0.50;;;13.70;99.90;;;;;;4379811;32;20093;-77
2023/03/14 10:26:04;;;;;;;0.32;0.32;;;13.60;99.90;;;;;;4377314;32;20077;-77
2023/03/14 10:28:33;;;;;;;0.40;0.40;;;13.60;99.90;;;;;;4371524;32;20804;-76
2023/03/14 10:31:01;;;;;;;0.37;0.37;;;13.70;99.90;;;;;;4368913;32;20101;-76
2023/03/14 10:33:30;;;;;;;2.45;1.02;;;13.60;99.90;;;;;;4377236;32;20545;-76
2023/03/14 10:35:59;;;;;;;3.72;0.60;;;13.50;99.90;;;;;;4384539;32;21440;-76
2023/03/14 10:38:29;;;;;;;0.40;0.40;;;13.50;99.90;;;;;;4383076;32;21114;-76
2023/03/14 10:40:55;;;;;;;0.40;0.40;;;13.60;99.90;;;;;;4378453;32;20132;-75
2023/03/14 10:43:27;;;;;;;0.90;0.90;;;13.50;99.90;;;;;;4387388;32;20109;-77
2023/03/14 10:45:57;;;;;;;0.40;0.40;;;13.50;99.90;;;;;;4393074;32;20429;-79
2023/03/14 10:48:31;;;;;;;0.35;0.35;;;13.50;99.90;;;;;;4386229;32;20453;-77
2023/03/14 10:51:04;;;;;;;0.40;0.40;;;13.50;99.90;;;;;;4391670;32;20085;-77
2023/03/14 10:53:56;;;;;;;0.40;0.40;;;13.50;99.90;;;;;;4399093;32;20856;-75
2023/03/14 10:56:25;;;;;;;0.40;0.40;;;13.60;99.90;;;;;;4386466;32;20081;-76
2023/03/14 10:58:55;;;;;;;0.50;0.50;;;13.60;99.90;;;;;;4400281;32;20092;-77
2023/03/14 11:01:41;;;;;;;0.30;0.30;;;13.70;99.90;;;;;;4408455;32;20647;-78
2023/03/14 11:04:23;;;;;;;0.40;0.40;;;13.70;99.90;;;;;;4405973;32;20136;-77
2023/03/14 11:07:01;;;;;;;0.45;0.45;;;13.70;99.90;;;;;;4400828;32;20671;-77
2023/03/14 11:09:36;;;;;;;8.77;0.50;;;13.70;99.90;;;;;;4401924;32;20093;-78
2023/03/14 11:12:33;;;;;;;0.40;0.40;;;13.70;99.90;;;;;;4401909;32;20085;-77
2023/03/14 11:15:03;;;;;;;0.50;0.50;;;13.70;99.90;;;;;;4388860;32;20101;-75
2023/03/14 11:17:38;;;;;;;0.35;0.35;;;13.70;99.90;;;;;;4388587;32;20818;-77
2023/03/14 11:20:26;;;;;;;0.40;0.40;;;13.70;99.90;;;;;;4407008;32;20132;-77
2023/03/14 11:23:03;;;;;;;0.40;0.40;;;13.70;99.90;;;;;;4402070;32;20196;-77
2023/03/14 11:25:44;;;;;;;0.40;0.40;;;13.70;99.90;;;;;;4424973;32;20167;-79
2023/03/14 11:28:36;;;;;;;0.75;0.65;;;13.80;99.90;;;;;;4426088;32;20128;-77
2023/03/14 11:31:26;;;;;;;0.40;0.40;;;13.70;99.90;;;;;;4417106;32;20169;-77
2023/03/14 11:34:05;;;;;;;0.55;0.55;;;13.70;99.90;;;;;;4410581;32;20089;-77
2023/03/14 11:36:37;;;;;;;5.47;2.33;;;13.70;99.90;;;;;;4416663;32;20551;-77
2023/03/14 11:39:07;;;;;;;0.40;0.40;;;13.60;99.90;;;;;;4413551;32;20473;-76
2023/03/14 11:41:39;;;;;;;0.40;0.40;;;13.50;99.90;;;;;;4409959;32;20101;-78
2023/03/14 11:44:16;;;;;;;0.40;0.40;;;13.50;99.90;;;;;;4404583;32;106220;-75
2023/03/14 11:46:56;;;;;;;1.45;1.15;;;13.50;99.90;;;;;;4403346;32;20643;-76
2023/03/14 11:49:33;;;;;;;0.50;0.50;;;13.40;99.90;;;;;;4397154;32;20131;-79
2023/03/14 11:52:04;;;;;;;2.65;1.50;;;13.50;99.90;;;;;;4407116;32;21061;-79
2023/03/14 11:54:46;;;;;;;0.47;0.47;;;13.50;99.90;;;;;;4378289;32;20579;-76
2023/03/14 11:57:15;;;;;;;0.35;0.35;;;13.50;99.90;;;;;;4386437;32;20098;-77
2023/03/14 12:00:13;;;;;;;0.37;0.37;;;13.50;99.90;;;;;;4382628;32;20101;-79
2023/03/14 12:02:52;;;;;;;0.32;0.32;;;13.40;99.90;;;;;;4372361;32;20140;-77
2023/03/14 12:05:46;;;;;;;0.30;0.30;;;13.40;99.90;;;;;;4400554;32;20521;-80
2023/03/14 12:08:51;;;;;;;0.25;0.25;;;13.40;99.90;;;;;;4387110;32;20118;-76
2023/03/14 12:11:30;;;;;;;0.65;0.47;;;13.60;99.90;;;;;;4387003;32;20093;-79
2023/03/14 12:13:55;;;;;;;0.40;0.40;;;13.60;99.90;;;;;;4401602;32;20260;-79
2023/03/14 12:16:30;;;;;;;0.40;0.40;;;13.60;99.90;;;;;;4408222;32;20159;-77
2023/03/14 12:18:55;;;;;;;0.30;0.30;;;13.60;99.90;;;;;;4382497;32;20147;-77
2023/03/14 12:21:45;;;;;;;0.40;0.40;;;13.60;99.90;;;;;;4407633;32;20081;-79
2023/03/14 12:24:19;;;;;;;0.30;0.30;;;13.50;99.90;;;;;;4389256;32;20182;-78
2023/03/14 12:26:54;;;;;;;0.43;0.43;;;13.60;99.90;;;;;;4395441;32;20104;-77
2023/03/14 12:29:21;;;;;;;0.30;0.30;;;13.60;99.90;;;;;;4402782;32;20097;-76
2023/03/14 12:31:49;;;;;;;0.30;0.30;;;13.60;99.90;;;;;;4403010;32;20093;-76
2023/03/14 12:34:17;;;;;;;0.30;0.30;;;13.60;99.90;;;;;;4400028;32;20156;-76
2023/03/14 12:36:49;;;;;;;0.43;0.43;;;13.50;99.90;;;;;;4384590;32;20112;-76
2023/03/14 12:39:39;;;;;;;7.37;0.73;;;13.50;99.90;;;;;;4407944;32;21085;-77
2023/03/14 12:42:32;;;;;;;0.30;0.30;;;13.60;99.90;;;;;;4399270;32;20167;-77
2023/03/14 12:45:16;;;;;;;0.40;0.40;;;13.70;99.90;;;;;;4402216;32;20202;-76
2023/03/14 12:47:52;;;;;;;0.40;0.40;;;13.70;99.90;;;;;;4371065;32;20768;-76
2023/03/14 12:50:24;;;;;;;0.40;0.40;;;13.70;99.90;;;;;;4396048;32;20097;-75
2023/03/14 12:53:07;;;;;;;0.45;0.45;;;13.60;99.90;;;;;;4391878;32;20686;-78
2023/03/14 12:55:46;;;;;;;0.25;0.25;;;13.60;99.90;;;;;;4389972;32;20124;-77